PILOTS ONLINE: 207    ATC ONLINE: 28

CYYH - Taloyoak Airport

Location

IATA YYH
City Taloyoak
Country  Canada
Latitude 69° 32' 48" N
Longitude 93° 34' 36" W
Elevation 92 ft
Type Medium Airport

Runways

15T/33T 4020 ft / 100 ft

Weather

METAR
2014/07/25 05:00
CYYH 250500Z 15015KT 15SM FEW080 BKN210 13/08 A2994 RMK AS1CS2 SLP140
TAF
2014/07/24 18:42
TAF CYYH 241739Z 2418/2506 16010KT P6SM SKC 
      BECMG 2420/2422 16015KT 
     FM250300 17015KT P6SM SCT050 
      RMK NXT FCST BY 250000Z

Outbound flights

Inbound flights